Cayuga, Indiana
Current Conditions -  °F | °C
As of 4:55 AM on Wednesday 26 Nov 2014 (Local Time) from KDNV Reporting Station
Clear Clear  
Wind Chill: 14°   Ceiling: Unl
Heat Index: 20°   Visibility: 7mi
Dew Point: 19°   Wind: 5mph
Humidity: 95%   Direction: 90°E
Pressure: 30.12"   Gusts: NA
Location:  39.95°N, 87.46°W
Report Text: KDNV 260955Z AUTO 09004KT 7SM CLR M06/M07 A3012 RMK AO2 T10651072
Loading
Personal Weather Stations






























Interactive Weather Map New forecast layout! Learn more

10-Day Weather Forecast

Advertisements
Track Severe Weather on mobile